Time;durP1;ratioP1;P1;durP2;ratioP2;P2;SDS_P1;SDS_P2;PMS_P1;PMS_P2;Temp;Humidity;BMP_temperature;BMP_pressure;BME280_temperature;BME280_humidity;BME280_pressure;Samples;Min_cycle;Max_cycle;Signal;HPM_P1;HPM_P2
2022/11/12 00:01:17;;;;;;;8.50;5.70;;;6.20;99.90;;;;;;5044791;28;20476;-81
2022/11/12 00:04:02;;;;;;;8.27;4.15;;;6.20;99.90;;;;;;5044037;28;20648;-83
2022/11/12 00:06:46;;;;;;;5.93;4.43;;;6.10;99.90;;;;;;5046049;28;20479;-83
2022/11/12 00:09:31;;;;;;;5.70;4.60;;;6.10;99.90;;;;;;5045450;28;20045;-81
2022/11/12 00:12:16;;;;;;;5.43;3.90;;;6.10;99.90;;;;;;5046403;28;20040;-82
2022/11/12 00:15:01;;;;;;;7.90;5.20;;;6.10;99.90;;;;;;5045526;28;20589;-83
2022/11/12 00:17:46;;;;;;;7.72;5.28;;;6.00;99.90;;;;;;5044124;28;20068;-82
2022/11/12 00:20:30;;;;;;;6.30;4.20;;;6.00;99.90;;;;;;5046039;28;20052;-81
2022/11/12 00:23:15;;;;;;;6.10;4.60;;;6.00;99.90;;;;;;5042610;28;20029;-83
2022/11/12 00:26:00;;;;;;;8.88;5.05;;;6.00;99.90;;;;;;5045810;28;20045;-82
2022/11/12 00:28:45;;;;;;;6.88;4.78;;;6.00;99.90;;;;;;5030725;28;20037;-83
2022/11/12 00:31:30;;;;;;;5.22;4.00;;;5.90;99.90;;;;;;5044600;28;20041;-83
2022/11/12 00:34:15;;;;;;;6.28;4.43;;;5.90;99.90;;;;;;5041876;28;20048;-83
2022/11/12 00:37:00;;;;;;;7.07;4.60;;;5.90;99.90;;;;;;5046194;28;20045;-83
2022/11/12 00:39:45;;;;;;;6.10;4.43;;;5.90;99.90;;;;;;5043227;28;20040;-81
2022/11/12 00:42:30;;;;;;;6.55;4.53;;;5.80;99.90;;;;;;5042464;28;20033;-82
2022/11/12 00:45:15;;;;;;;9.07;5.80;;;5.90;99.90;;;;;;5041393;28;20045;-83
2022/11/12 00:48:00;;;;;;;4.78;4.13;;;5.90;99.90;;;;;;5030051;28;20036;-83
2022/11/12 00:50:44;;;;;;;7.57;5.25;;;5.90;99.90;;;;;;5043326;28;20039;-82
2022/11/12 00:53:29;;;;;;;7.22;5.25;;;5.90;99.90;;;;;;5040993;28;20040;-81
2022/11/12 00:56:14;;;;;;;6.13;4.63;;;5.80;99.90;;;;;;5029548;28;20060;-82
2022/11/12 00:59:00;;;;;;;7.18;4.93;;;5.80;99.90;;;;;;5045478;28;20049;-83
2022/11/12 01:01:45;;;;;;;6.32;4.22;;;5.80;99.90;;;;;;5037150;28;20041;-82
2022/11/12 01:04:31;;;;;;;8.85;5.60;;;5.80;99.90;;;;;;5028010;28;20802;-83
2022/11/12 01:07:15;;;;;;;6.97;5.53;;;5.70;99.90;;;;;;5041100;28;20056;-81
2022/11/12 01:10:00;;;;;;;6.63;4.90;;;5.70;99.90;;;;;;5042891;28;20032;-83
2022/11/12 01:12:45;;;;;;;5.43;4.35;;;5.70;99.90;;;;;;5030557;28;20037;-82
2022/11/12 01:15:29;;;;;;;8.75;5.82;;;5.70;99.90;;;;;;5043602;28;20041;-83
2022/11/12 01:18:14;;;;;;;7.65;5.05;;;5.70;99.90;;;;;;5028605;28;20364;-82
2022/11/12 01:21:03;;;;;;;7.22;5.55;;;5.70;99.90;;;;;;5041056;28;20514;-83
2022/11/12 01:23:48;;;;;;;5.97;4.55;;;5.70;99.90;;;;;;5042363;28;20044;-82
2022/11/12 01:26:34;;;;;;;5.85;4.63;;;5.70;99.90;;;;;;5044194;28;20052;-83
2022/11/12 01:29:19;;;;;;;7.35;5.13;;;5.70;99.90;;;;;;5027907;28;20496;-83
2022/11/12 01:32:04;;;;;;;8.38;5.28;;;5.60;99.90;;;;;;5029758;28;20036;-83
2022/11/12 01:34:50;;;;;;;9.23;5.43;;;5.60;99.90;;;;;;5027038;28;20399;-83
2022/11/12 01:37:35;;;;;;;6.53;5.15;;;5.60;99.90;;;;;;5027951;28;20045;-82
2022/11/12 01:40:19;;;;;;;6.50;5.35;;;5.60;99.90;;;;;;5041223;28;20403;-79
2022/11/12 01:43:12;;;;;;;6.70;5.22;;;5.50;99.90;;;;;;5044417;28;20037;-79
2022/11/12 01:46:00;;;;;;;9.98;6.28;;;5.50;99.90;;;;;;5042408;28;20048;-82
2022/11/12 01:48:58;;;;;;;10.07;5.22;;;5.50;99.90;;;;;;5039813;28;20033;-80
2022/11/12 01:51:46;;;;;;;7.40;5.72;;;5.50;99.90;;;;;;5040265;28;20040;-80
2022/11/12 01:54:31;;;;;;;6.45;5.47;;;5.50;99.90;;;;;;5040408;28;20044;-82
2022/11/12 01:57:30;;;;;;;8.00;5.78;;;5.50;99.90;;;;;;5042189;28;20388;-82
2022/11/12 02:00:16;;;;;;;8.48;5.22;;;5.40;99.90;;;;;;5041629;28;20368;-80
2022/11/12 02:03:06;;;;;;;9.45;5.68;;;5.40;99.90;;;;;;5041773;28;20049;-82
2022/11/12 02:06:00;;;;;;;7.07;5.03;;;5.40;99.90;;;;;;5041723;28;20052;-82
2022/11/12 02:08:46;;;;;;;7.15;4.55;;;5.40;99.90;;;;;;5048346;28;20396;-79
2022/11/12 02:11:31;;;;;;;8.45;5.13;;;5.40;99.90;;;;;;5045675;28;20079;-81
2022/11/12 02:14:15;;;;;;;6.32;4.30;;;5.40;99.90;;;;;;5044868;28;20029;-79
2022/11/12 02:17:00;;;;;;;5.95;4.32;;;5.40;99.90;;;;;;5048725;28;20533;-82
2022/11/12 02:19:46;;;;;;;6.15;4.72;;;5.30;99.90;;;;;;5031387;28;20032;-82
2022/11/12 02:22:31;;;;;;;8.20;5.25;;;5.40;99.90;;;;;;5042571;28;20397;-81
2022/11/12 02:25:22;;;;;;;14.20;7.47;;;5.30;99.90;;;;;;5030123;28;20412;-81
2022/11/12 02:28:07;;;;;;;6.90;5.63;;;5.30;99.90;;;;;;5029914;28;20032;-80
2022/11/12 02:30:52;;;;;;;6.28;4.95;;;5.30;99.90;;;;;;5040149;28;20033;-82
2022/11/12 02:33:37;;;;;;;8.23;4.75;;;5.30;99.90;;;;;;5041475;28;20036;-81
2022/11/12 02:36:22;;;;;;;7.00;4.43;;;5.30;99.90;;;;;;5030205;28;20475;-81
2022/11/12 02:39:07;;;;;;;6.55;4.95;;;5.20;99.90;;;;;;5047048;28;20024;-82
2022/11/12 02:41:52;;;;;;;7.25;5.15;;;5.20;99.90;;;;;;5026383;28;21487;-81
2022/11/12 02:44:37;;;;;;;7.40;5.18;;;5.20;99.90;;;;;;5026468;28;20052;-81
2022/11/12 02:47:21;;;;;;;7.72;4.57;;;5.20;99.90;;;;;;5031401;28;20715;-83
2022/11/12 02:50:07;;;;;;;5.72;4.25;;;5.20;99.90;;;;;;5041867;28;20048;-81
2022/11/12 02:52:52;;;;;;;8.40;5.28;;;5.20;99.90;;;;;;5043372;28;20491;-82
2022/11/12 02:55:37;;;;;;;8.13;5.32;;;5.20;99.90;;;;;;5046478;28;20407;-80
2022/11/12 02:58:22;;;;;;;7.57;5.55;;;5.20;99.90;;;;;;5044737;28;20056;-83
2022/11/12 03:01:07;;;;;;;9.05;5.95;;;5.20;99.90;;;;;;5042811;28;20060;-82
2022/11/12 03:03:52;;;;;;;6.63;5.63;;;5.30;99.90;;;;;;5041176;28;20052;-81
2022/11/12 03:06:36;;;;;;;6.55;4.82;;;5.30;99.90;;;;;;5043251;28;20464;-82
2022/11/12 03:09:22;;;;;;;7.65;6.05;;;5.30;99.90;;;;;;5043613;28;20063;-81
2022/11/12 03:12:07;;;;;;;8.63;5.80;;;5.30;99.90;;;;;;5040216;28;20040;-80
2022/11/12 03:14:52;;;;;;;7.07;4.88;;;5.20;99.90;;;;;;5025837;28;20029;-80
2022/11/12 03:17:37;;;;;;;10.55;5.78;;;5.20;99.90;;;;;;5042900;28;20048;-82
2022/11/12 03:20:22;;;;;;;5.57;4.70;;;5.20;99.90;;;;;;5041571;28;20035;-82
2022/11/12 03:23:09;;;;;;;7.03;5.60;;;5.20;99.90;;;;;;5039818;28;20832;-79
2022/11/12 03:25:54;;;;;;;5.78;4.85;;;5.20;99.90;;;;;;5041999;28;20056;-82
2022/11/12 03:28:39;;;;;;;8.27;5.38;;;5.20;99.90;;;;;;5041351;28;20040;-82
2022/11/12 03:31:24;;;;;;;7.38;5.22;;;5.20;99.90;;;;;;5029841;28;20033;-82
2022/11/12 03:34:10;;;;;;;8.70;5.47;;;5.20;99.90;;;;;;5039667;28;20408;-81
2022/11/12 03:36:55;;;;;;;6.97;5.07;;;5.10;99.90;;;;;;5028209;28;20052;-81
2022/11/12 03:39:40;;;;;;;5.13;4.57;;;5.10;99.90;;;;;;5041577;28;20404;-78
2022/11/12 03:42:25;;;;;;;5.80;4.72;;;5.10;99.90;;;;;;5025061;28;20047;-81
2022/11/12 03:45:10;;;;;;;7.65;4.45;;;5.10;99.90;;;;;;5038631;28;20045;-82
2022/11/12 03:47:56;;;;;;;6.43;4.72;;;5.10;99.90;;;;;;5042080;28;20045;-83
2022/11/12 03:50:41;;;;;;;5.57;4.85;;;5.10;99.90;;;;;;5039039;28;20075;-82
2022/11/12 03:53:26;;;;;;;6.53;5.05;;;5.10;99.90;;;;;;5037164;28;20048;-81
2022/11/12 03:56:11;;;;;;;8.25;5.10;;;5.00;99.90;;;;;;5026689;28;20037;-80
2022/11/12 03:58:55;;;;;;;7.32;5.15;;;5.00;99.90;;;;;;5025776;28;20115;-82
2022/11/12 04:01:40;;;;;;;7.72;6.32;;;5.00;99.90;;;;;;5039061;28;20043;-82
2022/11/12 04:08:34;;;;;;;6.97;5.72;;;5.00;99.90;;;;;;5040698;28;20044;-80
2022/11/12 04:10:35;;;;;;;8.48;6.43;;;5.00;99.90;;;;;;5040950;28;20040;-82
2022/11/12 04:13:29;;;;;;;8.38;5.93;;;5.00;99.90;;;;;;5036857;28;20029;-82
2022/11/12 04:22:23;;;;;;;8.70;5.70;;;4.90;99.90;;;;;;5038471;28;20041;-82
2022/11/12 04:28:12;;;;;;;5.13;4.32;;;4.90;99.90;;;;;;5040968;28;20052;-79
2022/11/12 04:30:56;;;;;;;9.02;4.97;;;4.90;99.90;;;;;;5039629;28;20070;-82
2022/11/12 04:33:41;;;;;;;8.00;6.63;;;4.90;99.90;;;;;;5025039;28;20033;-83
2022/11/12 04:36:26;;;;;;;6.88;5.60;;;4.90;99.90;;;;;;5027193;28;20044;-83
2022/11/12 04:39:11;;;;;;;7.53;5.63;;;4.90;99.90;;;;;;5029841;28;20029;-83
2022/11/12 04:45:03;;;;;;;7.50;5.03;;;4.90;99.90;;;;;;5045689;28;20048;-82
2022/11/12 04:47:48;;;;;;;6.47;5.28;;;4.90;99.90;;;;;;5043668;28;20044;-82
2022/11/12 04:50:34;;;;;;;7.30;4.85;;;4.80;99.90;;;;;;5042212;28;20040;-83
2022/11/12 04:53:19;;;;;;;6.95;5.03;;;4.80;99.90;;;;;;5041926;28;20037;-82
2022/11/12 04:56:04;;;;;;;7.10;5.70;;;4.80;99.90;;;;;;5033315;28;20049;-84
2022/11/12 04:58:49;;;;;;;5.55;4.72;;;4.80;99.90;;;;;;5043399;28;20412;-79
2022/11/12 05:01:34;;;;;;;7.82;5.38;;;4.70;99.90;;;;;;5042363;28;20463;-82
2022/11/12 05:04:18;;;;;;;7.25;5.28;;;4.80;99.90;;;;;;5046778;28;20052;-82
2022/11/12 05:07:04;;;;;;;7.03;6.22;;;4.70;99.90;;;;;;5048856;28;20056;-83
2022/11/12 05:09:49;;;;;;;8.25;5.72;;;4.70;99.90;;;;;;5045096;28;20033;-81
2022/11/12 05:12:33;;;;;;;7.07;5.38;;;4.70;99.90;;;;;;5030209;28;20573;-83
2022/11/12 05:15:18;;;;;;;10.27;5.70;;;4.70;99.90;;;;;;5046836;28;20636;-82
2022/11/12 05:18:03;;;;;;;5.35;4.32;;;4.70;99.90;;;;;;5045897;28;20032;-83
2022/11/12 05:20:50;;;;;;;7.15;5.50;;;4.70;99.90;;;;;;5044691;28;20635;-82
2022/11/12 05:23:35;;;;;;;8.20;5.90;;;4.70;99.90;;;;;;5042147;28;20044;-83
2022/11/12 05:26:20;;;;;;;7.43;4.97;;;4.60;99.90;;;;;;5031303;28;20052;-82
2022/11/12 05:29:05;;;;;;;9.77;4.60;;;4.60;99.90;;;;;;5042771;28;20051;-83
2022/11/12 05:31:50;;;;;;;6.35;5.25;;;4.60;99.90;;;;;;5041921;28;20487;-82
2022/11/12 05:34:35;;;;;;;10.13;5.68;;;4.60;99.90;;;;;;5044115;28;20045;-82
2022/11/12 05:37:20;;;;;;;7.63;5.15;;;4.50;99.90;;;;;;5043445;28;20082;-82
2022/11/12 05:40:06;;;;;;;7.90;5.25;;;4.50;99.90;;;;;;5046124;28;20032;-82
2022/11/12 05:42:51;;;;;;;7.93;4.88;;;4.50;99.90;;;;;;5044563;28;20033;-82
2022/11/12 05:45:36;;;;;;;6.90;5.07;;;4.50;99.90;;;;;;5046047;28;20052;-84
2022/11/12 05:48:21;;;;;;;5.55;4.30;;;4.50;99.90;;;;;;5031007;28;20052;-84
2022/11/12 05:51:06;;;;;;;9.98;6.05;;;4.50;99.90;;;;;;5030445;28;20044;-81
2022/11/12 05:53:50;;;;;;;7.65;5.93;;;4.60;99.90;;;;;;5029326;28;20032;-80
2022/11/12 05:56:36;;;;;;;6.03;4.87;;;4.60;99.90;;;;;;5030561;28;20063;-82
2022/11/12 05:59:21;;;;;;;6.72;5.13;;;4.60;99.90;;;;;;5046571;28;20052;-80
2022/11/12 06:02:06;;;;;;;7.28;5.35;;;4.60;99.90;;;;;;5032702;28;20495;-81
2022/11/12 06:04:51;;;;;;;6.25;4.93;;;4.60;99.90;;;;;;5040805;28;20040;-81
2022/11/12 06:07:35;;;;;;;6.22;4.80;;;4.60;99.90;;;;;;5044141;28;20056;-82
2022/11/12 06:10:20;;;;;;;6.47;4.88;;;4.60;99.90;;;;;;5042422;28;20039;-80
2022/11/12 06:13:05;;;;;;;6.85;5.30;;;4.60;99.90;;;;;;5045112;28;20036;-82
2022/11/12 06:15:52;;;;;;;7.40;5.22;;;4.60;99.90;;;;;;5043523;28;20037;-81
2022/11/12 06:18:37;;;;;;;7.32;5.07;;;4.60;99.90;;;;;;5042391;28;20446;-80
2022/11/12 06:21:22;;;;;;;7.43;5.18;;;4.50;99.90;;;;;;5041230;28;20036;-82
2022/11/12 06:24:07;;;;;;;6.80;5.30;;;4.50;99.90;;;;;;5041632;28;20969;-80
2022/11/12 06:26:52;;;;;;;5.18;4.38;;;4.50;99.90;;;;;;5029223;28;20045;-84
2022/11/12 06:29:37;;;;;;;8.27;5.75;;;4.50;99.90;;;;;;5044122;28;20037;-81
2022/11/12 06:32:26;;;;;;;8.43;5.05;;;4.50;99.90;;;;;;5026248;28;20504;-79
2022/11/12 06:35:11;;;;;;;6.25;4.78;;;4.40;99.90;;;;;;5043708;28;20506;-80
2022/11/12 06:37:57;;;;;;;6.70;5.05;;;4.40;99.90;;;;;;5044059;28;20051;-83
2022/11/12 06:40:41;;;;;;;5.35;4.10;;;4.40;99.90;;;;;;5040230;28;20041;-81
2022/11/12 06:43:29;;;;;;;7.15;4.30;;;4.40;99.90;;;;;;5025218;28;20041;-83
2022/11/12 06:46:15;;;;;;;8.13;5.90;;;4.40;99.90;;;;;;5045620;28;20045;-83
2022/11/12 06:49:00;;;;;;;10.13;6.50;;;4.40;99.90;;;;;;5041533;28;20033;-83
2022/11/12 06:51:45;;;;;;;11.32;6.80;;;4.50;99.90;;;;;;5040580;28;20045;-79
2022/11/12 06:54:30;;;;;;;7.70;4.47;;;4.50;99.90;;;;;;5025451;28;20041;-83
2022/11/12 06:57:15;;;;;;;9.63;7.00;;;4.60;99.90;;;;;;5041498;28;20029;-84
2022/11/12 07:00:00;;;;;;;6.50;4.63;;;4.60;99.90;;;;;;5041481;28;20061;-82
2022/11/12 07:02:45;;;;;;;6.20;5.15;;;4.60;99.90;;;;;;5041530;28;20609;-84
2022/11/12 07:05:30;;;;;;;5.97;4.03;;;4.60;99.90;;;;;;5040613;28;20041;-82
2022/11/12 07:08:14;;;;;;;8.15;5.72;;;4.60;99.90;;;;;;5040599;28;20043;-80
2022/11/12 07:10:59;;;;;;;9.00;5.28;;;4.60;99.90;;;;;;5026561;28;20056;-85
2022/11/12 07:13:45;;;;;;;6.22;4.68;;;4.60;99.90;;;;;;5039713;28;20025;-81
2022/11/12 07:16:30;;;;;;;7.55;4.88;;;4.70;99.90;;;;;;5041048;28;20033;-84
2022/11/12 07:19:15;;;;;;;6.20;4.32;;;4.70;99.90;;;;;;5041425;28;20032;-85
2022/11/12 07:22:00;;;;;;;11.70;7.65;;;4.70;99.90;;;;;;5039531;28;20037;-78
2022/11/12 07:24:45;;;;;;;7.20;4.97;;;4.70;99.90;;;;;;5038515;28;20555;-79
2022/11/12 07:27:30;;;;;;;8.80;6.00;;;4.70;99.90;;;;;;5043026;28;20415;-82
2022/11/12 07:30:15;;;;;;;8.07;5.13;;;4.80;99.90;;;;;;5040512;28;20040;-79
2022/11/12 07:33:00;;;;;;;7.78;5.25;;;4.80;99.90;;;;;;5040563;28;20460;-83
2022/11/12 07:35:45;;;;;;;8.50;5.15;;;4.90;99.90;;;;;;5041769;28;20388;-81
2022/11/12 07:38:31;;;;;;;14.18;9.55;;;4.90;99.90;;;;;;5026361;28;20048;-82
2022/11/12 07:41:22;;;;;;;9.10;6.60;;;5.00;99.90;;;;;;5025929;28;20032;-85
2022/11/12 07:44:06;;;;;;;9.75;5.65;;;5.00;99.90;;;;;;5037706;28;20412;-82
2022/11/12 07:46:51;;;;;;;9.43;6.10;;;5.10;99.90;;;;;;5041275;28;20047;-83
2022/11/12 07:49:36;;;;;;;7.32;5.85;;;5.10;99.90;;;;;;5043050;28;20037;-83
2022/11/12 07:52:21;;;;;;;6.68;5.80;;;5.20;99.90;;;;;;5040121;28;20036;-84
2022/11/12 07:55:06;;;;;;;12.85;10.10;;;5.30;99.90;;;;;;5024129;28;20500;-85
2022/11/12 07:57:52;;;;;;;29.95;22.27;;;5.30;99.90;;;;;;5040967;28;20037;-81
2022/11/12 08:00:37;;;;;;;25.42;18.23;;;5.40;99.90;;;;;;5045396;28;20152;-83
2022/11/12 08:03:22;;;;;;;19.73;13.43;;;5.50;99.90;;;;;;5037308;28;20417;-82
2022/11/12 08:06:07;;;;;;;17.90;10.73;;;5.60;99.90;;;;;;5041826;28;20037;-83
2022/11/12 08:08:56;;;;;;;22.60;18.05;;;5.70;99.90;;;;;;5043795;28;20506;-82
2022/11/12 08:11:41;;;;;;;17.67;11.98;;;5.80;99.90;;;;;;5041824;28;20048;-83
2022/11/12 08:14:26;;;;;;;11.68;8.48;;;5.80;99.90;;;;;;5039905;28;20029;-83
2022/11/12 08:17:11;;;;;;;10.50;7.53;;;5.90;99.90;;;;;;5046156;28;20044;-86
2022/11/12 08:19:56;;;;;;;9.90;7.00;;;6.00;99.90;;;;;;5045308;28;20029;-85
2022/11/12 08:22:41;;;;;;;8.45;6.28;;;6.10;99.90;;;;;;5047164;28;20041;-84
2022/11/12 08:25:26;;;;;;;7.38;6.32;;;6.10;99.90;;;;;;5043766;28;20084;-85
2022/11/12 08:28:11;;;;;;;6.97;5.38;;;6.20;99.90;;;;;;5031911;28;20521;-83
2022/11/12 08:30:56;;;;;;;8.02;5.90;;;6.30;99.90;;;;;;5029920;28;20072;-84
2022/11/12 08:33:41;;;;;;;7.97;5.97;;;6.40;99.90;;;;;;5043420;28;20563;-81
2022/11/12 08:36:27;;;;;;;10.75;6.03;;;6.60;99.90;;;;;;5030776;28;20029;-85
2022/11/12 08:39:12;;;;;;;12.02;6.50;;;6.60;99.90;;;;;;5029794;28;20044;-85
2022/11/12 08:41:56;;;;;;;9.07;5.55;;;6.80;99.90;;;;;;5039268;28;20025;-82
2022/11/12 08:44:41;;;;;;;7.22;5.25;;;6.90;99.90;;;;;;5041260;28;20041;-83
2022/11/12 08:47:26;;;;;;;7.88;5.75;;;6.90;99.90;;;;;;5043841;28;20044;-82
2022/11/12 08:50:11;;;;;;;7.95;5.38;;;7.00;99.90;;;;;;5042091;28;20033;-82
2022/11/12 08:53:10;;;;;;;7.82;5.68;;;7.20;99.90;;;;;;5040484;28;20033;-83
2022/11/12 08:55:56;;;;;;;9.70;5.68;;;7.30;99.90;;;;;;5029633;28;20418;-85
2022/11/12 08:58:41;;;;;;;10.57;6.60;;;7.30;99.90;;;;;;5028501;28;20329;-85
2022/11/12 09:01:25;;;;;;;7.45;5.60;;;7.40;99.90;;;;;;5026605;28;20531;-81
2022/11/12 09:04:10;;;;;;;11.68;6.47;;;7.50;99.90;;;;;;5039959;28;20510;-84
2022/11/12 09:06:55;;;;;;;7.20;5.10;;;7.60;99.90;;;;;;5042767;28;20040;-84
2022/11/12 09:09:40;;;;;;;6.65;5.78;;;7.70;99.90;;;;;;5041172;28;20459;-80
2022/11/12 09:12:25;;;;;;;7.63;6.68;;;7.80;99.90;;;;;;5039753;28;20059;-86
2022/11/12 09:15:10;;;;;;;9.00;6.32;;;7.80;99.90;;;;;;5038440;28;20063;-87
2022/11/12 09:18:00;;;;;;;6.50;5.70;;;7.90;99.90;;;;;;5042597;28;20025;-87
2022/11/12 09:20:45;;;;;;;9.50;6.20;;;8.00;99.90;;;;;;5026431;28;20048;-84
2022/11/12 09:23:32;;;;;;;8.50;5.95;;;8.10;99.90;;;;;;5036125;28;20032;-84
2022/11/12 09:26:17;;;;;;;8.02;6.50;;;8.20;99.90;;;;;;5039145;28;20028;-81
2022/11/12 09:29:01;;;;;;;9.35;6.15;;;8.30;99.90;;;;;;5041132;28;20574;-81
2022/11/12 09:31:46;;;;;;;7.50;5.68;;;8.40;99.90;;;;;;5038167;28;20041;-81
2022/11/12 09:34:31;;;;;;;9.50;5.88;;;8.50;99.90;;;;;;5036594;28;20135;-83
2022/11/12 09:37:16;;;;;;;12.30;8.15;;;8.60;99.90;;;;;;5038573;28;20054;-84
2022/11/12 09:40:01;;;;;;;10.23;6.88;;;8.70;99.90;;;;;;5038600;28;20518;-81
2022/11/12 09:42:53;;;;;;;10.90;7.80;;;9.00;99.90;;;;;;5043794;28;20037;-83
2022/11/12 09:45:39;;;;;;;9.82;7.88;;;9.20;99.90;;;;;;5042870;28;20030;-83
2022/11/12 09:48:33;;;;;;;9.45;6.07;;;9.50;99.90;;;;;;5042593;28;20475;-84
2022/11/12 09:51:27;;;;;;;6.60;5.03;;;9.70;99.90;;;;;;5029936;28;20040;-88
2022/11/12 09:54:31;;;;;;;8.60;6.07;;;9.90;99.90;;;;;;5026978;28;20060;-84
2022/11/12 09:57:16;;;;;;;6.90;5.00;;;10.10;99.90;;;;;;5050644;28;20021;-85
2022/11/12 10:00:02;;;;;;;6.22;4.70;;;10.60;99.90;;;;;;5045222;28;20570;-82
2022/11/12 10:02:53;;;;;;;4.90;4.13;;;11.00;99.90;;;;;;5046113;28;20037;-87
2022/11/12 10:05:51;;;;;;;5.82;4.80;;;11.30;99.90;;;;;;5050093;28;20387;-87
2022/11/12 10:09:05;;;;;;;5.28;4.10;;;11.60;99.90;;;;;;5050902;28;20049;-86
2022/11/12 10:19:13;;;;;;;4.50;2.60;;;12.80;99.90;;;;;;5046227;28;20033;-86
2022/11/12 10:22:19;;;;;;;3.33;2.10;;;13.30;99.90;;;;;;5045138;28;20036;-82
2022/11/12 10:25:14;;;;;;;3.78;2.67;;;13.70;99.90;;;;;;5048340;28;20040;-87
2022/11/12 10:28:06;;;;;;;3.63;2.60;;;14.10;99.90;;;;;;5044790;28;20045;-85
2022/11/12 10:30:56;;;;;;;;;;;14.40;99.90;;;;;;5054023;28;20423;-87
2022/11/12 10:33:41;;;;;;;7.10;4.78;;;14.50;99.90;;;;;;5051432;28;20292;-85
2022/11/12 10:36:30;;;;;;;4.63;4.07;;;14.30;99.90;;;;;;5037561;28;20056;-84
2022/11/12 10:39:32;;;;;;;5.05;3.95;;;14.20;99.90;;;;;;5038815;28;20052;-81
2022/11/12 10:42:19;;;;;;;4.05;3.20;;;14.00;99.90;;;;;;5030967;28;20045;-83
2022/11/12 10:45:19;;;;;;;5.53;4.25;;;13.70;99.90;;;;;;5042520;28;20387;-84
2022/11/12 10:48:18;;;;;;;10.05;7.32;;;13.40;99.90;;;;;;5042281;28;20483;-84
2022/11/12 10:51:19;;;;;;;7.13;5.38;;;13.10;99.90;;;;;;5045215;28;20033;-84
2022/11/12 10:54:35;;;;;;;5.03;3.90;;;12.80;99.90;;;;;;5046832;28;20361;-82
2022/11/12 10:57:25;;;;;;;6.57;5.38;;;12.60;99.90;;;;;;5044107;28;20052;-82
2022/11/12 11:00:15;;;;;;;5.70;4.43;;;12.50;99.90;;;;;;5049091;28;20059;-83
2022/11/12 11:03:04;;;;;;;4.03;3.00;;;12.40;99.90;;;;;;5050859;28;20021;-83
2022/11/12 11:05:55;;;;;;;6.88;3.58;;;12.30;99.90;;;;;;5031337;28;20061;-84
2022/11/12 11:08:44;;;;;;;3.58;2.55;;;12.30;99.90;;;;;;5046453;28;20044;-85
2022/11/12 11:11:30;;;;;;;14.98;10.82;;;12.20;99.90;;;;;;5046565;28;20037;-82
2022/11/12 11:14:21;;;;;;;12.75;7.88;;;12.20;99.90;;;;;;5044596;28;20033;-83
2022/11/12 11:17:16;;;;;;;29.15;19.40;;;12.20;99.90;;;;;;5047093;28;20419;-82
2022/11/12 11:20:14;;;;;;;19.58;11.80;;;12.20;99.90;;;;;;5029209;28;20059;-82
2022/11/12 11:23:09;;;;;;;14.02;8.68;;;12.20;99.90;;;;;;5057164;28;20033;-84
2022/11/12 11:26:01;;;;;;;7.88;5.82;;;12.20;99.90;;;;;;5040572;28;20025;-82
2022/11/12 11:28:57;;;;;;;6.50;4.93;;;12.20;99.90;;;;;;5028793;28;20419;-82
2022/11/12 11:32:11;;;;;;;7.40;4.15;;;12.20;99.90;;;;;;5047891;28;20488;-82
2022/11/12 11:35:13;;;;;;;5.35;3.10;;;12.30;99.90;;;;;;5045554;28;20033;-83
2022/11/12 11:38:15;;;;;;;3.95;2.78;;;12.30;99.90;;;;;;5041809;28;20063;-82
2022/11/12 11:41:12;;;;;;;3.97;2.58;;;12.30;99.90;;;;;;5031104;28;20037;-83
2022/11/12 11:44:32;;;;;;;3.67;2.67;;;12.30;99.90;;;;;;5043735;28;20029;-82
2022/11/12 11:47:41;;;;;;;2.97;2.33;;;12.40;99.90;;;;;;5048395;28;20048;-82
2022/11/12 11:50:47;;;;;;;4.07;3.13;;;12.40;99.90;;;;;;5047370;28;20032;-82
2022/11/12 11:53:51;;;;;;;3.45;2.35;;;12.40;99.90;;;;;;5025147;28;20037;-82
2022/11/12 11:56:42;;;;;;;3.00;2.10;;;12.50;99.90;;;;;;5041756;28;20037;-82
2022/11/12 11:59:53;;;;;;;2.20;1.50;;;12.50;99.90;;;;;;5034821;28;20048;-82
2022/11/12 12:02:47;;;;;;;3.17;2.40;;;12.50;99.90;;;;;;5035850;28;20478;-81
2022/11/12 12:05:41;;;;;;;3.65;2.38;;;12.50;99.90;;;;;;5035883;28;20052;-82
2022/11/12 12:08:26;;;;;;;3.30;1.90;;;12.50;99.90;;;;;;5034359;28;20048;-83
2022/11/12 12:11:24;;;;;;;2.88;1.70;;;12.50;99.90;;;;;;5049520;28;20040;-83
2022/11/12 12:14:18;;;;;;;2.92;1.90;;;12.60;99.90;;;;;;5052549;28;20029;-84
2022/11/12 12:17:21;;;;;;;10.00;8.88;;;12.60;99.90;;;;;;5048110;28;20041;-83
2022/11/12 12:20:37;;;;;;;6.60;5.47;;;12.60;99.90;;;;;;5037125;28;20040;-81
2022/11/12 12:23:34;;;;;;;4.55;4.15;;;12.70;99.90;;;;;;5036509;28;20037;-81
2022/11/12 12:26:41;;;;;;;3.47;2.70;;;12.70;99.90;;;;;;5047741;28;20040;-81
2022/11/12 12:29:52;;;;;;;2.70;2.20;;;12.70;99.90;;;;;;5044897;28;20036;-81
2022/11/12 12:32:45;;;;;;;3.03;2.72;;;12.70;99.90;;;;;;5050634;28;20047;-82
2022/11/12 12:35:53;;;;;;;3.72;2.80;;;12.80;99.90;;;;;;5044529;28;20423;-82
2022/11/12 12:38:57;;;;;;;3.08;2.50;;;12.80;99.90;;;;;;5054892;28;20033;-84
2022/11/12 12:41:46;;;;;;;5.28;2.38;;;12.90;99.90;;;;;;5056122;28;20060;-82
2022/11/12 12:47:48;;;;;;;2.63;2.40;;;12.90;99.90;;;;;;5053259;28;20056;-84
2022/11/12 12:50:37;;;;;;;4.70;2.20;;;12.90;99.90;;;;;;5051300;28;20048;-83
2022/11/12 12:53:27;;;;;;;3.25;1.90;;;12.90;99.90;;;;;;5050297;28;20037;-82
2022/11/12 12:56:12;;;;;;;4.07;2.03;;;12.90;99.90;;;;;;5045163;28;20041;-84
2022/11/12 12:59:02;;;;;;;6.03;3.88;;;13.00;99.90;;;;;;5046131;28;20049;-84
2022/11/12 13:02:01;;;;;;;3.63;2.67;;;12.90;99.90;;;;;;5044085;28;20029;-84
2022/11/12 13:04:56;;;;;;;3.90;3.13;;;13.00;99.90;;;;;;5044868;28;20037;-84
2022/11/12 13:07:46;;;;;;;3.17;2.83;;;13.00;99.90;;;;;;5054837;28;20049;-82
2022/11/12 13:10:40;;;;;;;5.85;4.53;;;13.00;99.90;;;;;;5046694;28;20048;-83
2022/11/12 13:13:39;;;;;;;5.03;4.18;;;13.10;99.90;;;;;;5046787;28;20535;-83
2022/11/12 13:16:53;;;;;;;4.28;3.88;;;13.10;99.90;;;;;;5035232;28;20041;-83
2022/11/12 13:19:57;;;;;;;4.45;3.65;;;13.10;99.90;;;;;;5045173;28;20041;-84
2022/11/12 13:22:42;;;;;;;5.20;4.03;;;13.20;99.90;;;;;;5050349;28;20033;-83
2022/11/12 13:25:30;;;;;;;4.25;3.30;;;13.10;99.90;;;;;;5034950;28;20033;-84
2022/11/12 13:28:15;;;;;;;3.53;2.90;;;13.10;99.90;;;;;;5050520;28;20411;-84
2022/11/12 13:31:02;;;;;;;5.05;4.10;;;13.10;99.90;;;;;;5035592;28;20044;-82
2022/11/12 13:33:47;;;;;;;4.20;3.03;;;13.10;99.90;;;;;;5036997;28;20040;-84
2022/11/12 13:36:32;;;;;;;4.88;3.83;;;13.00;99.90;;;;;;5048112;28;20036;-83
2022/11/12 13:39:19;;;;;;;6.40;5.13;;;13.00;99.90;;;;;;5031070;28;20051;-82
2022/11/12 13:45:24;;;;;;;7.85;5.57;;;13.00;99.90;;;;;;5047257;28;20036;-84
2022/11/12 13:48:16;;;;;;;7.15;4.63;;;13.00;99.90;;;;;;5047055;28;20037;-84
2022/11/12 13:51:13;;;;;;;9.45;6.38;;;12.90;99.90;;;;;;5049483;28;20045;-83
2022/11/12 13:53:59;;;;;;;6.47;5.78;;;12.90;99.90;;;;;;5048921;28;20391;-81
2022/11/12 13:56:44;;;;;;;6.82;5.38;;;12.90;99.90;;;;;;5045376;28;20109;-85
2022/11/12 13:59:29;;;;;;;7.70;3.90;;;12.90;99.90;;;;;;5042479;28;20041;-83
2022/11/12 14:02:25;;;;;;;5.47;4.80;;;12.90;99.90;;;;;;5051705;28;20036;-82
2022/11/12 14:05:16;;;;;;;4.55;3.80;;;12.90;99.90;;;;;;5052040;28;20025;-81
2022/11/12 14:08:26;;;;;;;7.93;5.30;;;12.90;99.90;;;;;;5048646;28;20041;-83
2022/11/12 14:11:30;;;;;;;5.40;4.55;;;12.80;99.90;;;;;;5036893;28;20028;-82
2022/11/12 14:14:36;;;;;;;5.57;4.40;;;12.90;99.90;;;;;;5047054;28;20048;-86
2022/11/12 14:17:45;;;;;;;6.75;5.13;;;12.90;99.90;;;;;;5042964;28;20354;-79
2022/11/12 14:20:37;;;;;;;7.13;5.47;;;12.90;99.90;;;;;;5028836;28;20475;-81
2022/11/12 14:23:22;;;;;;;7.65;5.65;;;12.90;99.90;;;;;;5034622;28;20496;-82
2022/11/12 14:26:10;;;;;;;7.68;5.75;;;12.90;99.90;;;;;;5043921;28;20025;-86
2022/11/12 14:28:56;;;;;;;5.05;4.22;;;12.90;99.90;;;;;;5044148;28;21011;-84
2022/11/12 14:31:41;;;;;;;5.97;3.70;;;12.90;99.90;;;;;;5047932;28;20033;-84
2022/11/12 14:34:29;;;;;;;5.88;4.40;;;12.90;99.90;;;;;;5032218;28;20037;-85
2022/11/12 14:37:33;;;;;;;7.65;5.28;;;12.80;99.90;;;;;;5042753;28;20476;-83
2022/11/12 14:40:19;;;;;;;5.93;4.13;;;12.80;99.90;;;;;;5041246;28;20423;-82
2022/11/12 14:43:04;;;;;;;6.57;5.03;;;12.70;99.90;;;;;;5033117;28;20048;-86
2022/11/12 14:45:51;;;;;;;6.55;4.13;;;12.70;99.90;;;;;;5026599;28;20037;-83
2022/11/12 14:49:00;;;;;;;4.18;3.22;;;12.70;99.90;;;;;;5042690;28;20048;-84
2022/11/12 14:52:20;;;;;;;3.92;3.17;;;12.70;99.90;;;;;;5028237;28;20048;-86
2022/11/12 14:55:10;;;;;;;4.18;2.35;;;12.60;99.90;;;;;;5042226;28;20044;-80
2022/11/12 14:57:57;;;;;;;4.15;3.30;;;12.50;99.90;;;;;;5045792;28;20051;-81
2022/11/12 15:00:45;;;;;;;6.25;4.78;;;12.50;99.90;;;;;;5043311;28;20515;-81
2022/11/12 15:03:31;;;;;;;5.55;3.50;;;12.50;99.90;;;;;;5049362;28;20028;-81
2022/11/12 15:06:28;;;;;;;4.72;3.65;;;12.50;99.90;;;;;;5033609;28;20035;-82
2022/11/12 15:09:17;;;;;;;4.05;3.13;;;12.50;99.90;;;;;;5041302;28;20052;-84
2022/11/12 15:12:19;;;;;;;4.10;2.47;;;12.40;99.90;;;;;;5046283;28;20044;-85
2022/11/12 15:15:17;;;;;;;5.25;4.07;;;12.50;99.90;;;;;;5043795;28;20040;-89